createdAt,value
2018-07-20T00:00:11.499Z,5.07
2018-07-20T00:02:39.094Z,4.10
2018-07-20T00:05:06.834Z,4.83
2018-07-20T00:07:34.350Z,4.80
2018-07-20T00:10:02.021Z,5.13
2018-07-20T00:12:29.620Z,4.53
2018-07-20T00:14:57.250Z,4.80
2018-07-20T00:17:24.839Z,4.30
2018-07-20T00:19:52.459Z,4.30
2018-07-20T00:22:20.045Z,4.60
2018-07-20T00:24:47.676Z,4.57
2018-07-20T00:27:15.235Z,4.47
2018-07-20T00:29:42.835Z,4.67
2018-07-20T00:32:11.415Z,4.20
2018-07-20T00:34:39.070Z,4.90
2018-07-20T00:37:06.738Z,4.73
2018-07-20T00:39:34.345Z,3.80
2018-07-20T00:42:01.978Z,4.50
2018-07-20T00:44:29.595Z,4.33
2018-07-20T00:46:57.235Z,4.67
2018-07-20T00:49:24.754Z,4.40
2018-07-20T00:51:52.289Z,4.90
2018-07-20T00:54:19.909Z,3.83
2018-07-20T00:56:47.589Z,4.37
2018-07-20T00:59:15.215Z,5.50
2018-07-20T01:01:42.879Z,5.63
2018-07-20T01:04:10.480Z,4.77
2018-07-20T01:06:38.111Z,5.03
2018-07-20T01:09:07.516Z,4.43
2018-07-20T01:11:35.146Z,4.40
2018-07-20T01:14:02.736Z,5.57
2018-07-20T01:16:30.366Z,4.97
2018-07-20T01:18:57.842Z,5.30
2018-07-20T01:21:25.461Z,4.53
2018-07-20T01:23:52.964Z,4.60
2018-07-20T01:26:20.595Z,4.57
2018-07-20T01:28:48.147Z,4.53
2018-07-20T01:31:15.749Z,4.97
2018-07-20T01:33:43.224Z,5.30
2018-07-20T01:36:10.856Z,4.83
2018-07-20T01:38:38.386Z,5.67
2018-07-20T01:41:06.024Z,5.20
2018-07-20T01:43:33.655Z,5.33
2018-07-20T01:46:01.148Z,4.93
2018-07-20T01:48:28.774Z,4.40
2018-07-20T01:50:56.279Z,4.90
2018-07-20T01:53:23.845Z,5.13
2018-07-20T01:55:51.406Z,5.20
2018-07-20T01:58:19.051Z,4.63
2018-07-20T02:00:46.726Z,6.13
2018-07-20T02:03:14.357Z,4.67
2018-07-20T02:05:41.992Z,5.10
2018-07-20T02:08:09.613Z,5.60
2018-07-20T02:10:37.163Z,4.40
2018-07-20T02:13:04.867Z,5.03
2018-07-20T02:15:32.463Z,4.40
2018-07-20T02:18:00.078Z,4.57
2018-07-20T02:20:27.658Z,5.40
2018-07-20T02:22:55.150Z,5.33
2018-07-20T02:25:22.750Z,5.20
2018-07-20T02:27:50.371Z,5.67
2018-07-20T02:30:18.022Z,5.03
2018-07-20T02:32:45.531Z,5.80
2018-07-20T02:35:13.132Z,5.60
2018-07-20T02:37:40.702Z,4.40
2018-07-20T02:40:08.359Z,5.00
2018-07-20T02:42:35.952Z,4.43
2018-07-20T02:45:03.747Z,4.67
2018-07-20T02:47:31.342Z,5.53
2018-07-20T02:49:58.983Z,4.50
2018-07-20T02:52:26.547Z,4.53
2018-07-20T02:54:54.173Z,4.67
2018-07-20T02:57:21.789Z,4.37
2018-07-20T02:59:49.400Z,4.17
2018-07-20T03:02:17.055Z,4.87
2018-07-20T03:04:44.671Z,4.80
2018-07-20T03:07:12.251Z,4.40
2018-07-20T03:09:39.827Z,4.27
2018-07-20T03:12:07.436Z,4.57
2018-07-20T03:14:35.013Z,4.50
2018-07-20T03:17:02.522Z,4.30
2018-07-20T03:19:30.108Z,4.50
2018-07-20T03:21:57.722Z,4.03
2018-07-20T03:24:25.351Z,4.90
2018-07-20T03:26:52.945Z,4.90
2018-07-20T03:29:20.530Z,5.10
2018-07-20T03:31:48.151Z,5.00
2018-07-20T03:34:15.746Z,4.10
2018-07-20T03:36:43.246Z,4.40
2018-07-20T03:39:10.936Z,5.13
2018-07-20T03:41:38.886Z,4.27
2018-07-20T03:44:07.102Z,4.00
2018-07-20T03:46:34.715Z,4.60
2018-07-20T03:49:02.363Z,4.80
2018-07-20T03:51:29.946Z,5.93
2018-07-20T03:53:57.530Z,4.73
2018-07-20T03:56:25.151Z,5.40
2018-07-20T03:58:52.765Z,4.73
2018-07-20T04:01:20.372Z,4.60
2018-07-20T04:03:47.987Z,5.40
2018-07-20T04:06:15.678Z,4.30
2018-07-20T04:08:43.226Z,5.20
2018-07-20T04:11:10.856Z,5.10
2018-07-20T04:13:38.386Z,4.37
2018-07-20T04:16:06.046Z,4.50
2018-07-20T04:18:33.646Z,5.47
2018-07-20T04:21:01.258Z,4.70
2018-07-20T04:23:28.832Z,4.80
2018-07-20T04:25:56.503Z,4.60
2018-07-20T04:28:24.097Z,4.63
2018-07-20T04:30:51.745Z,5.07
2018-07-20T04:33:19.342Z,5.43
2018-07-20T04:35:46.966Z,5.03
2018-07-20T04:38:14.595Z,5.97
2018-07-20T04:40:42.270Z,5.40
2018-07-20T04:43:09.747Z,4.60
2018-07-20T04:45:37.386Z,4.60
2018-07-20T04:48:05.106Z,4.70
2018-07-20T04:50:32.730Z,4.97
2018-07-20T04:53:00.356Z,5.60
2018-07-20T04:55:28.001Z,5.00
2018-07-20T04:57:55.633Z,5.00
2018-07-20T05:00:23.290Z,4.73
2018-07-20T05:02:50.925Z,6.37
2018-07-20T05:05:18.782Z,5.70
2018-07-20T05:07:46.437Z,5.83
2018-07-20T05:10:14.057Z,5.20
2018-07-20T05:12:41.762Z,4.67
2018-07-20T05:15:09.410Z,5.60
2018-07-20T05:17:37.042Z,4.60
2018-07-20T05:20:04.751Z,4.33
2018-07-20T05:22:32.256Z,5.47
2018-07-20T05:24:59.922Z,5.13
2018-07-20T05:27:27.553Z,4.90
2018-07-20T05:29:55.076Z,4.90
2018-07-20T05:32:22.587Z,4.63
2018-07-20T05:34:50.097Z,5.80
2018-07-20T05:37:17.717Z,6.33
2018-07-20T05:39:45.217Z,5.57
2018-07-20T05:42:12.926Z,6.30
2018-07-20T05:44:40.572Z,5.77
2018-07-20T05:47:08.157Z,4.90
2018-07-20T05:49:35.838Z,5.00
2018-07-20T05:52:03.376Z,4.93
2018-07-20T05:54:31.031Z,5.30
2018-07-20T05:56:58.744Z,4.80
2018-07-20T05:59:26.387Z,5.43
2018-07-20T06:01:53.925Z,4.80
2018-07-20T06:04:21.552Z,5.60
2018-07-20T06:06:49.207Z,5.43
2018-07-20T06:09:16.817Z,5.00
2018-07-20T06:11:44.460Z,5.00
2018-07-20T06:14:12.066Z,4.90
2018-07-20T06:16:39.697Z,4.80
2018-07-20T06:19:07.333Z,4.63
2018-07-20T06:21:34.871Z,5.50
2018-07-20T06:24:02.514Z,5.80
2018-07-20T06:26:30.201Z,6.10
2018-07-20T06:28:57.832Z,5.93
2018-07-20T06:31:25.533Z,5.40
2018-07-20T06:33:53.178Z,5.03
2018-07-20T06:36:24.327Z,6.10
2018-07-20T06:38:52.261Z,5.33
2018-07-20T06:41:19.931Z,5.97
2018-07-20T06:43:47.643Z,5.80
2018-07-20T06:46:15.323Z,5.60
2018-07-20T06:48:42.962Z,4.80
2018-07-20T06:51:10.603Z,5.33
2018-07-20T06:53:38.267Z,5.67
2018-07-20T06:56:05.977Z,5.57
2018-07-20T06:58:33.562Z,4.60
2018-07-20T07:01:01.220Z,5.20
2018-07-20T07:03:28.832Z,5.70
2018-07-20T07:05:56.469Z,5.20
2018-07-20T07:08:24.271Z,5.20
2018-07-20T07:10:51.949Z,5.53
2018-07-20T07:13:19.602Z,5.60
2018-07-20T07:15:47.281Z,5.80
2018-07-20T07:18:14.907Z,5.77
2018-07-20T07:20:42.554Z,5.10
2018-07-20T07:23:10.166Z,4.80
2018-07-20T07:25:37.808Z,5.50
2018-07-20T07:28:05.458Z,5.00
2018-07-20T07:30:32.975Z,4.87
2018-07-20T07:33:00.598Z,4.50
2018-07-20T07:35:28.996Z,4.10
2018-07-20T07:37:56.658Z,3.80
2018-07-20T07:40:24.325Z,3.80
2018-07-20T07:42:51.986Z,4.23
2018-07-20T07:45:19.643Z,3.87
2018-07-20T07:47:47.251Z,4.10
2018-07-20T07:50:14.931Z,3.67
2018-07-20T07:52:42.676Z,6.40
2018-07-20T07:55:10.387Z,5.77
2018-07-20T07:57:38.028Z,5.53
2018-07-20T08:00:05.704Z,5.73
2018-07-20T08:02:33.374Z,4.97
2018-07-20T08:05:00.846Z,5.03
2018-07-20T08:07:28.486Z,4.50
2018-07-20T08:09:56.153Z,4.60
2018-07-20T08:12:23.714Z,4.00
2018-07-20T08:14:51.338Z,3.90
2018-07-20T08:17:18.866Z,3.83
2018-07-20T08:19:46.478Z,3.37
2018-07-20T08:22:14.132Z,3.10
2018-07-20T08:24:41.634Z,3.40
2018-07-20T08:27:09.243Z,3.70
2018-07-20T08:29:36.883Z,3.90
2018-07-20T08:32:04.428Z,3.47
2018-07-20T08:34:32.059Z,3.70
2018-07-20T08:36:59.592Z,3.40
2018-07-20T08:39:27.208Z,3.27
2018-07-20T08:41:54.856Z,3.43
2018-07-20T08:44:22.483Z,3.20
2018-07-20T08:46:50.169Z,3.50
2018-07-20T08:49:17.798Z,3.60
2018-07-20T08:51:45.466Z,3.30
2018-07-20T08:54:13.072Z,3.23
2018-07-20T08:56:40.753Z,3.10
2018-07-20T08:59:08.437Z,3.70
2018-07-20T09:01:36.045Z,3.17
2018-07-20T09:04:03.704Z,3.20
2018-07-20T09:06:31.400Z,3.30
2018-07-20T09:08:59.008Z,3.43
2018-07-20T09:11:26.557Z,3.37
2018-07-20T09:13:54.419Z,3.53
2018-07-20T09:16:21.874Z,3.40
2018-07-20T09:18:49.589Z,3.30
2018-07-20T09:21:17.194Z,3.50
2018-07-20T09:23:44.914Z,4.13
2018-07-20T09:26:12.398Z,3.20
2018-07-20T09:28:40.018Z,3.50
2018-07-20T09:31:07.660Z,6.23
2018-07-20T09:33:35.318Z,3.53
2018-07-20T09:36:03.043Z,53.47
2018-07-20T09:38:30.554Z,35.07
2018-07-20T09:40:58.847Z,64.83
2018-07-20T09:43:27.078Z,42.27
2018-07-20T09:45:54.604Z,10.23
2018-07-20T09:48:22.232Z,4.97
2018-07-20T09:50:49.910Z,4.07
2018-07-20T09:53:17.542Z,3.33
2018-07-20T09:55:45.165Z,3.33
2018-07-20T09:58:12.772Z,3.87
2018-07-20T10:00:45.880Z,3.40
2018-07-20T10:03:13.438Z,3.27
2018-07-20T10:05:41.083Z,3.70
2018-07-20T10:08:08.710Z,3.57
2018-07-20T10:10:36.338Z,3.40
2018-07-20T10:13:03.897Z,3.70
2018-07-20T10:15:31.482Z,3.53
2018-07-20T10:17:59.150Z,4.20
2018-07-20T10:20:26.814Z,3.90
2018-07-20T10:22:54.450Z,3.43
2018-07-20T10:25:21.993Z,3.90
2018-07-20T10:27:49.625Z,3.77
2018-07-20T10:30:17.123Z,3.80
2018-07-20T10:32:44.778Z,3.83
2018-07-20T10:35:12.443Z,3.87
2018-07-20T10:37:40.128Z,3.60
2018-07-20T10:40:07.795Z,3.50
2018-07-20T10:42:35.449Z,3.60
2018-07-20T10:45:03.154Z,3.87
2018-07-20T10:47:30.814Z,3.87
2018-07-20T10:49:58.432Z,3.75
2018-07-20T10:52:26.109Z,3.85
2018-07-20T10:54:53.774Z,3.22
2018-07-20T10:57:21.409Z,3.20
2018-07-20T10:59:49.375Z,3.22
2018-07-20T11:02:16.950Z,3.52
2018-07-20T11:04:44.993Z,3.12
2018-07-20T11:07:12.602Z,3.30
2018-07-20T11:09:40.158Z,3.60
2018-07-20T11:12:08.092Z,3.40
2018-07-20T11:14:35.770Z,3.05
2018-07-20T11:17:03.468Z,3.15
2018-07-20T11:19:31.013Z,3.87
2018-07-20T11:21:58.629Z,3.25
2018-07-20T11:24:26.305Z,3.50
2018-07-20T11:26:53.898Z,3.13
2018-07-20T11:29:21.682Z,3.57
2018-07-20T11:31:49.308Z,3.97
2018-07-20T11:34:17.025Z,3.37
2018-07-20T11:36:44.744Z,3.47
2018-07-20T11:39:12.378Z,3.80
2018-07-20T11:41:39.906Z,4.17
2018-07-20T11:44:07.740Z,3.33
2018-07-20T11:46:35.427Z,3.60
2018-07-20T11:49:02.909Z,3.80
2018-07-20T11:51:30.554Z,3.67
2018-07-20T11:53:58.223Z,3.83
2018-07-20T11:56:25.920Z,3.60
2018-07-20T11:58:53.658Z,3.67
2018-07-20T12:01:21.401Z,3.97
2018-07-20T12:03:49.083Z,3.30
2018-07-20T12:06:16.753Z,3.70
2018-07-20T12:08:44.403Z,3.43
2018-07-20T12:11:11.925Z,4.03
2018-07-20T12:13:39.594Z,3.75
2018-07-20T12:16:07.324Z,3.50
2018-07-20T12:18:34.917Z,4.10
2018-07-20T12:21:02.592Z,3.80
2018-07-20T12:23:30.247Z,3.67
2018-07-20T12:25:57.857Z,3.73
2018-07-20T12:28:25.473Z,3.45
2018-07-20T12:30:53.093Z,3.53
2018-07-20T12:33:20.606Z,3.75
2018-07-20T12:35:48.253Z,3.60
2018-07-20T12:38:15.878Z,3.45
2018-07-20T12:40:43.414Z,3.37
2018-07-20T12:43:11.002Z,3.70
2018-07-20T12:45:38.708Z,3.47
2018-07-20T12:48:06.685Z,3.20
2018-07-20T12:50:34.275Z,3.20
2018-07-20T12:53:01.915Z,3.45
2018-07-20T12:55:29.462Z,3.20
2018-07-20T12:57:57.124Z,4.00
2018-07-20T13:00:24.802Z,4.00
2018-07-20T13:02:52.401Z,4.03
2018-07-20T13:05:20.038Z,3.72
2018-07-20T13:07:47.774Z,3.90
2018-07-20T13:10:15.453Z,3.40
2018-07-20T13:12:43.164Z,3.97
2018-07-20T13:15:10.732Z,4.00
2018-07-20T13:17:38.390Z,3.90
2018-07-20T13:20:05.942Z,3.50
2018-07-20T13:22:33.520Z,3.67
2018-07-20T13:25:01.078Z,3.70
2018-07-20T13:27:28.706Z,3.40
2018-07-20T13:29:56.204Z,3.83
2018-07-20T13:32:23.841Z,3.50
2018-07-20T13:34:51.517Z,3.60
2018-07-20T13:37:19.136Z,3.83
2018-07-20T13:39:46.782Z,3.60
2018-07-20T13:42:14.419Z,3.50
2018-07-20T13:44:42.105Z,3.25
2018-07-20T13:47:09.810Z,3.50
2018-07-20T13:49:37.488Z,3.20
2018-07-20T13:52:05.217Z,3.33
2018-07-20T13:54:32.936Z,3.22
2018-07-20T13:57:00.644Z,3.22
2018-07-20T13:59:28.310Z,3.42
2018-07-20T14:01:56.003Z,3.12
2018-07-20T14:04:23.551Z,3.35
2018-07-20T14:06:51.086Z,3.37
2018-07-20T14:09:18.724Z,3.10
2018-07-20T14:11:46.400Z,3.15
2018-07-20T14:14:14.068Z,3.08
2018-07-20T14:16:41.680Z,3.22
2018-07-20T14:19:09.318Z,3.02
2018-07-20T14:21:37.056Z,3.02
2018-07-20T14:24:04.714Z,3.60
2018-07-20T14:26:32.360Z,3.40
2018-07-20T14:28:59.961Z,3.20
2018-07-20T14:31:27.703Z,4.10
2018-07-20T14:33:55.284Z,3.58
2018-07-20T14:36:22.941Z,4.33
2018-07-20T14:38:50.508Z,4.80
2018-07-20T14:41:18.084Z,4.58
2018-07-20T14:43:45.644Z,4.27
2018-07-20T14:46:13.225Z,4.10
2018-07-20T14:48:40.877Z,4.17
2018-07-20T14:51:08.429Z,5.10
2018-07-20T14:53:36.065Z,4.50
2018-07-20T14:56:03.734Z,4.37
2018-07-20T14:58:31.250Z,4.43
2018-07-20T15:00:58.870Z,4.40
2018-07-20T15:03:26.664Z,4.20
2018-07-20T15:05:54.271Z,4.33
2018-07-20T15:08:21.904Z,5.10
2018-07-20T15:10:49.570Z,5.33
2018-07-20T15:13:17.484Z,5.87
2018-07-20T15:15:45.164Z,5.20
2018-07-20T15:18:12.786Z,5.13
2018-07-20T15:20:40.416Z,5.27
2018-07-20T15:23:08.354Z,6.17
2018-07-20T15:25:36.020Z,5.73
2018-07-20T15:28:03.879Z,5.40
2018-07-20T15:30:31.530Z,5.90
2018-07-20T15:32:59.050Z,5.33
2018-07-20T15:35:26.724Z,5.00
2018-07-20T15:37:54.324Z,5.50
2018-07-20T15:40:22.018Z,5.60
2018-07-20T15:42:49.618Z,6.37
2018-07-20T15:45:17.338Z,5.47
2018-07-20T15:47:44.898Z,6.03
2018-07-20T15:50:12.514Z,5.90
2018-07-20T15:55:07.855Z,4.73
2018-07-20T15:57:35.898Z,5.53
2018-07-20T16:00:04.347Z,5.33
2018-07-20T16:02:31.907Z,5.60
2018-07-20T16:04:59.500Z,5.93
2018-07-20T16:07:27.079Z,5.23
2018-07-20T16:09:54.596Z,5.77
2018-07-20T16:12:22.528Z,4.57
2018-07-20T16:14:50.208Z,4.20
2018-07-20T16:17:17.933Z,4.83
2018-07-20T16:19:45.546Z,4.20
2018-07-20T16:22:13.214Z,3.37
2018-07-20T16:24:40.854Z,3.30
2018-07-20T16:27:08.511Z,3.07
2018-07-20T16:29:36.055Z,3.30
2018-07-20T16:32:03.689Z,3.03
2018-07-20T16:34:31.339Z,2.70
2018-07-20T16:36:58.976Z,3.07
2018-07-20T16:39:26.647Z,3.20
2018-07-20T16:41:54.214Z,2.57
2018-07-20T16:44:21.815Z,3.00
2018-07-20T16:46:49.487Z,2.63
2018-07-20T16:49:16.989Z,3.50
2018-07-20T16:51:44.611Z,3.63
2018-07-20T16:54:12.271Z,3.17
2018-07-20T16:56:40.002Z,3.60
2018-07-20T16:59:07.655Z,3.47
2018-07-20T17:01:35.361Z,3.40
2018-07-20T17:04:02.949Z,3.10
2018-07-20T17:06:30.586Z,4.40
2018-07-20T17:08:58.150Z,3.50
2018-07-20T17:11:25.738Z,4.37
2018-07-20T17:13:53.431Z,4.80
2018-07-20T17:16:21.107Z,5.50
2018-07-20T17:18:48.738Z,4.47
2018-07-20T17:21:16.411Z,4.53
2018-07-20T17:23:44.090Z,4.47
2018-07-20T17:26:11.782Z,4.33
2018-07-20T17:28:39.446Z,5.37
2018-07-20T17:31:07.167Z,4.57
2018-07-20T17:33:34.691Z,4.80
2018-07-20T17:36:02.337Z,4.50
2018-07-20T17:38:30.047Z,5.27
2018-07-20T17:40:57.700Z,6.60
2018-07-20T17:43:25.402Z,7.30
2018-07-20T17:45:53.104Z,7.33
2018-07-20T17:48:20.611Z,5.33
2018-07-20T17:50:48.176Z,5.17
2018-07-20T17:53:15.891Z,6.07
2018-07-20T17:55:43.532Z,4.90
2018-07-20T17:58:11.282Z,5.83
2018-07-20T18:00:39.026Z,6.30
2018-07-20T18:03:06.654Z,5.13
2018-07-20T18:05:34.236Z,5.07
2018-07-20T18:08:02.295Z,6.33
2018-07-20T18:10:29.931Z,5.00
2018-07-20T18:12:57.500Z,6.70
2018-07-20T18:15:25.083Z,5.20
2018-07-20T18:17:53.682Z,6.00
2018-07-20T18:20:21.337Z,5.33
2018-07-20T18:22:49.057Z,5.43
2018-07-20T18:25:16.707Z,6.93
2018-07-20T18:27:44.411Z,5.43
2018-07-20T18:30:12.108Z,6.10
2018-07-20T18:32:39.751Z,6.30
2018-07-20T18:35:07.478Z,6.37
2018-07-20T18:37:35.211Z,5.50
2018-07-20T18:40:02.976Z,5.23
2018-07-20T18:42:30.657Z,6.30
2018-07-20T18:44:58.361Z,4.83
2018-07-20T18:47:26.017Z,5.23
2018-07-20T18:49:53.661Z,6.50
2018-07-20T18:52:21.244Z,7.20
2018-07-20T18:54:48.763Z,6.03
2018-07-20T18:57:16.495Z,6.67
2018-07-20T18:59:44.285Z,6.30
2018-07-20T19:02:11.813Z,6.20
2018-07-20T19:04:39.540Z,5.30
2018-07-20T19:07:07.189Z,5.33
2018-07-20T19:09:34.868Z,4.97
2018-07-20T19:12:02.522Z,6.27
2018-07-20T19:14:30.356Z,5.40
2018-07-20T19:16:57.916Z,6.57
2018-07-20T19:19:25.600Z,7.47
2018-07-20T19:21:53.403Z,6.93
2018-07-20T19:24:20.952Z,5.40
2018-07-20T19:26:48.650Z,7.33
2018-07-20T19:29:16.333Z,8.03
2018-07-20T19:31:43.976Z,6.93
2018-07-20T19:34:12.790Z,6.07
2018-07-20T19:36:40.527Z,8.23
2018-07-20T19:39:24.660Z,8.80
2018-07-20T19:41:56.489Z,7.93
2018-07-20T19:44:25.947Z,8.87
2018-07-20T19:47:03.466Z,6.57
2018-07-20T19:49:33.299Z,6.20
2018-07-20T19:52:06.301Z,6.23
2018-07-20T19:54:39.781Z,6.03
2018-07-20T19:57:24.330Z,7.83
2018-07-20T20:00:00.371Z,6.07
2018-07-20T20:02:43.540Z,5.90
2018-07-20T20:05:27.246Z,6.20
2018-07-20T20:07:55.447Z,6.33
2018-07-20T20:10:23.022Z,6.80
2018-07-20T20:12:50.588Z,7.10
2018-07-20T20:15:18.094Z,9.80
2018-07-20T20:17:45.765Z,9.23
2018-07-20T20:20:14.088Z,9.60
2018-07-20T20:22:42.730Z,7.53
2018-07-20T20:25:10.531Z,7.53
2018-07-20T20:27:54.402Z,9.20
2018-07-20T20:30:29.853Z,8.40
2018-07-20T20:32:58.211Z,7.17
2018-07-20T20:35:26.000Z,7.53
2018-07-20T20:37:54.446Z,7.00
2018-07-20T20:40:23.122Z,8.10
2018-07-20T20:42:50.971Z,7.10
2018-07-20T20:45:18.835Z,8.67
2018-07-20T20:47:49.601Z,8.13
2018-07-20T20:50:21.307Z,7.63
2018-07-20T20:52:49.220Z,7.73
2018-07-20T20:55:17.830Z,8.53
2018-07-20T20:57:46.642Z,8.60
2018-07-20T21:00:16.736Z,8.53
2018-07-20T21:02:45.680Z,8.30
2018-07-20T21:05:17.640Z,10.43
2018-07-20T21:07:45.732Z,7.90
2018-07-20T21:10:24.528Z,7.87
2018-07-20T21:13:15.066Z,8.70
2018-07-20T21:15:56.965Z,10.83
2018-07-20T21:18:37.416Z,7.53
2018-07-20T21:21:15.195Z,7.67
2018-07-20T21:23:53.400Z,7.30
2018-07-20T21:26:35.215Z,8.57
2018-07-20T21:29:27.369Z,7.07
2018-07-20T21:32:07.531Z,7.33
2018-07-20T21:37:49.097Z,8.80
2018-07-20T21:40:39.462Z,8.93
2018-07-20T21:43:18.431Z,7.73
2018-07-20T21:45:54.071Z,7.07
2018-07-20T21:48:32.807Z,7.80
2018-07-20T21:51:20.951Z,7.17
2018-07-20T21:54:07.102Z,8.87
2018-07-20T21:56:45.410Z,9.67
2018-07-20T21:59:25.170Z,7.90
2018-07-20T22:02:02.535Z,7.57
2018-07-20T22:04:43.284Z,8.20
2018-07-20T22:07:23.332Z,8.70
2018-07-20T22:09:52.573Z,9.20
2018-07-20T22:12:21.369Z,9.23
2018-07-20T22:14:49.021Z,7.00
2018-07-20T22:17:17.275Z,6.90
2018-07-20T22:19:44.935Z,8.17
2018-07-20T22:22:12.855Z,6.77
2018-07-20T22:24:40.522Z,7.07
2018-07-20T22:27:08.183Z,7.33
2018-07-20T22:29:35.977Z,7.53
2018-07-20T22:32:03.833Z,7.70
2018-07-20T22:34:31.567Z,7.87
2018-07-20T22:36:59.220Z,7.40
2018-07-20T22:39:26.846Z,8.57
2018-07-20T22:41:54.380Z,9.47
2018-07-20T22:44:21.910Z,10.43
2018-07-20T22:46:49.572Z,9.40
2018-07-20T22:49:17.152Z,10.57
2018-07-20T22:51:44.806Z,9.73
2018-07-20T22:54:12.455Z,8.87
2018-07-20T22:56:40.092Z,8.90
2018-07-20T22:59:07.750Z,9.70
2018-07-20T23:01:35.270Z,10.20
2018-07-20T23:04:02.898Z,9.03
2018-07-20T23:06:30.511Z,8.43
2018-07-20T23:09:00.773Z,9.97
2018-07-20T23:11:28.362Z,9.70
2018-07-20T23:13:55.995Z,8.80
2018-07-20T23:16:23.466Z,8.67
2018-07-20T23:18:50.990Z,9.70
2018-07-20T23:21:19.110Z,8.27
2018-07-20T23:23:46.709Z,9.87
2018-07-20T23:26:14.311Z,9.13
2018-07-20T23:28:41.894Z,9.07
2018-07-20T23:31:09.505Z,10.37
2018-07-20T23:33:37.122Z,8.50
2018-07-20T23:36:04.793Z,9.23
2018-07-20T23:38:32.420Z,9.73
2018-07-20T23:41:00.040Z,8.87
2018-07-20T23:43:27.646Z,8.07
2018-07-20T23:45:55.327Z,8.20
2018-07-20T23:48:22.923Z,9.33
2018-07-20T23:50:50.606Z,8.60
2018-07-20T23:53:18.686Z,10.17
2018-07-20T23:55:46.182Z,12.80
2018-07-20T23:58:13.757Z,9.27
